sensor_id;sensor_type;location;lat;lon;timestamp;temperature;humidity
7362;DHT22;3721;44.490;11.220;2023-02-01T00:00:21;7.20;84.40
7362;DHT22;3721;44.490;11.220;2023-02-01T00:02:46;7.20;84.40
7362;DHT22;3721;44.490;11.220;2023-02-01T00:05:12;7.20;84.20
7362;DHT22;3721;44.490;11.220;2023-02-01T00:07:38;7.20;84.20
7362;DHT22;3721;44.490;11.220;2023-02-01T00:10:05;7.20;84.20
7362;DHT22;3721;44.490;11.220;2023-02-01T00:12:31;7.10;83.70
7362;DHT22;3721;44.490;11.220;2023-02-01T00:14:57;7.10;83.70
7362;DHT22;3721;44.490;11.220;2023-02-01T00:17:23;7.10;83.60
7362;DHT22;3721;44.490;11.220;2023-02-01T00:19:48;7.10;83.60
7362;DHT22;3721;44.490;11.220;2023-02-01T00:22:14;7.10;83.60
7362;DHT22;3721;44.490;11.220;2023-02-01T00:24:40;7.10;83.60
7362;DHT22;3721;44.490;11.220;2023-02-01T00:27:05;7.00;83.40
7362;DHT22;3721;44.490;11.220;2023-02-01T00:29:31;7.00;83.40
7362;DHT22;3721;44.490;11.220;2023-02-01T00:31:57;6.90;82.90
7362;DHT22;3721;44.490;11.220;2023-02-01T00:34:22;6.80;83.00
7362;DHT22;3721;44.490;11.220;2023-02-01T00:36:48;6.70;83.40
7362;DHT22;3721;44.490;11.220;2023-02-01T00:39:14;6.60;83.70
7362;DHT22;3721;44.490;11.220;2023-02-01T00:41:40;6.60;84.00
7362;DHT22;3721;44.490;11.220;2023-02-01T00:44:06;6.50;84.00
7362;DHT22;3721;44.490;11.220;2023-02-01T00:46:32;6.50;84.20
7362;DHT22;3721;44.490;11.220;2023-02-01T00:48:58;6.50;84.10
7362;DHT22;3721;44.490;11.220;2023-02-01T00:51:26;6.40;84.20
7362;DHT22;3721;44.490;11.220;2023-02-01T00:53:52;6.40;84.50
7362;DHT22;3721;44.490;11.220;2023-02-01T00:56:19;6.40;84.50
7362;DHT22;3721;44.490;11.220;2023-02-01T00:58:44;6.40;84.60
7362;DHT22;3721;44.490;11.220;2023-02-01T01:01:21;6.40;84.60
7362;DHT22;3721;44.490;11.220;2023-02-01T01:03:53;6.40;84.60
7362;DHT22;3721;44.490;11.220;2023-02-01T01:06:24;6.40;84.50
7362;DHT22;3721;44.490;11.220;2023-02-01T01:08:52;6.30;84.30
7362;DHT22;3721;44.490;11.220;2023-02-01T01:11:22;6.30;84.50
7362;DHT22;3721;44.490;11.220;2023-02-01T01:13:49;6.30;84.50
7362;DHT22;3721;44.490;11.220;2023-02-01T01:16:16;6.20;84.80
7362;DHT22;3721;44.490;11.220;2023-02-01T01:18:41;6.20;85.00
7362;DHT22;3721;44.490;11.220;2023-02-01T01:21:08;6.10;84.80
7362;DHT22;3721;44.490;11.220;2023-02-01T01:23:35;6.10;84.90
7362;DHT22;3721;44.490;11.220;2023-02-01T01:26:05;6.10;85.40
7362;DHT22;3721;44.490;11.220;2023-02-01T01:28:31;6.10;85.30
7362;DHT22;3721;44.490;11.220;2023-02-01T01:30:57;6.00;85.20
7362;DHT22;3721;44.490;11.220;2023-02-01T01:33:23;6.00;84.70
7362;DHT22;3721;44.490;11.220;2023-02-01T01:35:49;5.90;84.90
7362;DHT22;3721;44.490;11.220;2023-02-01T01:38:14;5.80;84.90
7362;DHT22;3721;44.490;11.220;2023-02-01T01:40:44;5.80;85.00
7362;DHT22;3721;44.490;11.220;2023-02-01T01:43:19;5.80;85.30
7362;DHT22;3721;44.490;11.220;2023-02-01T01:45:48;5.80;85.60
7362;DHT22;3721;44.490;11.220;2023-02-01T01:48:23;5.70;85.50
7362;DHT22;3721;44.490;11.220;2023-02-01T01:51:03;5.70;85.60
7362;DHT22;3721;44.490;11.220;2023-02-01T01:53:48;5.60;85.70
7362;DHT22;3721;44.490;11.220;2023-02-01T01:56:15;5.50;85.70
7362;DHT22;3721;44.490;11.220;2023-02-01T01:58:41;5.40;85.70
7362;DHT22;3721;44.490;11.220;2023-02-01T02:01:08;5.30;86.00
7362;DHT22;3721;44.490;11.220;2023-02-01T02:03:39;5.30;86.30
7362;DHT22;3721;44.490;11.220;2023-02-01T02:06:20;5.30;86.50
7362;DHT22;3721;44.490;11.220;2023-02-01T02:08:50;5.30;86.70
7362;DHT22;3721;44.490;11.220;2023-02-01T02:11:17;5.40;86.60
7362;DHT22;3721;44.490;11.220;2023-02-01T02:13:46;5.40;86.50
7362;DHT22;3721;44.490;11.220;2023-02-01T02:42:29;5.50;86.30
7362;DHT22;3721;44.490;11.220;2023-02-01T02:48:19;5.60;86.00
7362;DHT22;3721;44.490;11.220;2023-02-01T02:50:47;5.60;85.80
7362;DHT22;3721;44.490;11.220;2023-02-01T02:53:48;5.70;85.70
7362;DHT22;3721;44.490;11.220;2023-02-01T02:56:35;5.70;85.70
7362;DHT22;3721;44.490;11.220;2023-02-01T02:59:23;5.70;85.80
7362;DHT22;3721;44.490;11.220;2023-02-01T03:02:08;5.70;85.60
7362;DHT22;3721;44.490;11.220;2023-02-01T03:04:53;5.70;85.60
7362;DHT22;3721;44.490;11.220;2023-02-01T03:10:22;5.60;85.20
7362;DHT22;3721;44.490;11.220;2023-02-01T03:12:49;5.50;85.20
7362;DHT22;3721;44.490;11.220;2023-02-01T03:15:25;5.40;85.20
7362;DHT22;3721;44.490;11.220;2023-02-01T03:17:55;5.40;85.20
7362;DHT22;3721;44.490;11.220;2023-02-01T03:20:22;5.30;85.00
7362;DHT22;3721;44.490;11.220;2023-02-01T03:22:49;5.20;84.90
7362;DHT22;3721;44.490;11.220;2023-02-01T03:25:22;5.10;84.70
7362;DHT22;3721;44.490;11.220;2023-02-01T03:27:58;5.00;85.00
7362;DHT22;3721;44.490;11.220;2023-02-01T03:30:29;4.90;85.20
7362;DHT22;3721;44.490;11.220;2023-02-01T03:33:00;4.90;85.50
7362;DHT22;3721;44.490;11.220;2023-02-01T03:38:12;4.90;86.20
7362;DHT22;3721;44.490;11.220;2023-02-01T03:40:39;4.90;85.50
7362;DHT22;3721;44.490;11.220;2023-02-01T03:43:11;4.90;85.40
7362;DHT22;3721;44.490;11.220;2023-02-01T03:45:43;4.90;85.30
7362;DHT22;3721;44.490;11.220;2023-02-01T03:48:10;4.90;85.50
7362;DHT22;3721;44.490;11.220;2023-02-01T03:50:43;5.00;85.40
7362;DHT22;3721;44.490;11.220;2023-02-01T03:53:15;4.90;85.00
7362;DHT22;3721;44.490;11.220;2023-02-01T03:55:42;4.80;84.90
7362;DHT22;3721;44.490;11.220;2023-02-01T03:58:17;4.80;85.10
7362;DHT22;3721;44.490;11.220;2023-02-01T04:00:56;4.80;85.20
7362;DHT22;3721;44.490;11.220;2023-02-01T04:03:23;4.80;85.40
7362;DHT22;3721;44.490;11.220;2023-02-01T04:05:49;4.90;85.60
7362;DHT22;3721;44.490;11.220;2023-02-01T04:08:15;4.90;85.40
7362;DHT22;3721;44.490;11.220;2023-02-01T04:10:41;4.90;85.40
7362;DHT22;3721;44.490;11.220;2023-02-01T04:13:07;5.00;85.60
7362;DHT22;3721;44.490;11.220;2023-02-01T04:15:33;5.00;85.60
7362;DHT22;3721;44.490;11.220;2023-02-01T04:18:05;5.00;85.40
7362;DHT22;3721;44.490;11.220;2023-02-01T04:20:31;5.00;85.10
7362;DHT22;3721;44.490;11.220;2023-02-01T04:22:57;5.00;85.10
7362;DHT22;3721;44.490;11.220;2023-02-01T04:25:23;4.90;85.00
7362;DHT22;3721;44.490;11.220;2023-02-01T04:27:48;4.90;85.30
7362;DHT22;3721;44.490;11.220;2023-02-01T04:30:14;4.90;85.20
7362;DHT22;3721;44.490;11.220;2023-02-01T04:32:40;4.90;85.30
7362;DHT22;3721;44.490;11.220;2023-02-01T04:35:06;4.90;85.20
7362;DHT22;3721;44.490;11.220;2023-02-01T04:37:33;4.80;85.00
7362;DHT22;3721;44.490;11.220;2023-02-01T04:39:58;4.70;85.10
7362;DHT22;3721;44.490;11.220;2023-02-01T04:42:24;4.70;85.10
7362;DHT22;3721;44.490;11.220;2023-02-01T04:44:50;4.70;85.30
7362;DHT22;3721;44.490;11.220;2023-02-01T04:47:16;4.60;85.20
7362;DHT22;3721;44.490;11.220;2023-02-01T05:01:53;4.60;85.10
7362;DHT22;3721;44.490;11.220;2023-02-01T05:04:19;4.70;86.30
7362;DHT22;3721;44.490;11.220;2023-02-01T05:06:45;4.80;86.50
7362;DHT22;3721;44.490;11.220;2023-02-01T05:09:10;4.80;86.40
7362;DHT22;3721;44.490;11.220;2023-02-01T05:11:36;4.90;86.40
7362;DHT22;3721;44.490;11.220;2023-02-01T05:14:20;4.90;86.30
7362;DHT22;3721;44.490;11.220;2023-02-01T05:16:46;5.00;86.30
7362;DHT22;3721;44.490;11.220;2023-02-01T05:19:12;5.00;86.10
7362;DHT22;3721;44.490;11.220;2023-02-01T05:21:37;5.00;86.10
7362;DHT22;3721;44.490;11.220;2023-02-01T05:24:04;5.10;86.10
7362;DHT22;3721;44.490;11.220;2023-02-01T05:26:39;5.10;85.90
7362;DHT22;3721;44.490;11.220;2023-02-01T05:29:06;5.10;85.90
7362;DHT22;3721;44.490;11.220;2023-02-01T05:31:32;5.20;85.90
7362;DHT22;3721;44.490;11.220;2023-02-01T05:34:04;5.20;85.80
7362;DHT22;3721;44.490;11.220;2023-02-01T05:36:30;5.20;85.60
7362;DHT22;3721;44.490;11.220;2023-02-01T05:38:59;5.20;85.60
7362;DHT22;3721;44.490;11.220;2023-02-01T05:41:38;5.20;86.20
7362;DHT22;3721;44.490;11.220;2023-02-01T05:44:04;5.20;85.30
7362;DHT22;3721;44.490;11.220;2023-02-01T05:46:33;5.20;85.20
7362;DHT22;3721;44.490;11.220;2023-02-01T05:48:58;5.20;85.00
7362;DHT22;3721;44.490;11.220;2023-02-01T05:51:24;5.20;84.80
7362;DHT22;3721;44.490;11.220;2023-02-01T05:53:50;5.10;84.80
7362;DHT22;3721;44.490;11.220;2023-02-01T05:56:15;5.10;85.00
7362;DHT22;3721;44.490;11.220;2023-02-01T05:58:41;5.10;84.90
7362;DHT22;3721;44.490;11.220;2023-02-01T06:01:07;5.00;85.00
7362;DHT22;3721;44.490;11.220;2023-02-01T06:03:32;5.00;85.20
7362;DHT22;3721;44.490;11.220;2023-02-01T06:05:58;5.00;85.50
7362;DHT22;3721;44.490;11.220;2023-02-01T06:08:25;4.90;85.30
7362;DHT22;3721;44.490;11.220;2023-02-01T06:10:57;4.90;85.30
7362;DHT22;3721;44.490;11.220;2023-02-01T06:13:23;4.80;85.20
7362;DHT22;3721;44.490;11.220;2023-02-01T06:15:49;4.80;85.30
7362;DHT22;3721;44.490;11.220;2023-02-01T06:18:14;4.80;85.20
7362;DHT22;3721;44.490;11.220;2023-02-01T06:20:41;4.70;85.20
7362;DHT22;3721;44.490;11.220;2023-02-01T06:23:06;4.70;85.30
7362;DHT22;3721;44.490;11.220;2023-02-01T06:25:32;4.50;85.10
7362;DHT22;3721;44.490;11.220;2023-02-01T06:28:00;4.50;85.70
7362;DHT22;3721;44.490;11.220;2023-02-01T06:30:26;4.50;85.70
7362;DHT22;3721;44.490;11.220;2023-02-01T06:32:52;4.50;85.80
7362;DHT22;3721;44.490;11.220;2023-02-01T06:35:20;4.50;85.80
7362;DHT22;3721;44.490;11.220;2023-02-01T06:37:46;4.40;86.00
7362;DHT22;3721;44.490;11.220;2023-02-01T06:42:38;4.40;85.90
7362;DHT22;3721;44.490;11.220;2023-02-01T06:45:04;4.40;86.30
7362;DHT22;3721;44.490;11.220;2023-02-01T06:47:29;4.40;86.60
7362;DHT22;3721;44.490;11.220;2023-02-01T06:49:55;4.40;86.40
7362;DHT22;3721;44.490;11.220;2023-02-01T06:52:20;4.30;86.50
7362;DHT22;3721;44.490;11.220;2023-02-01T07:26:25;4.30;86.70
7362;DHT22;3721;44.490;11.220;2023-02-01T07:28:50;5.40;87.60
7362;DHT22;3721;44.490;11.220;2023-02-01T07:31:18;5.50;87.50
7362;DHT22;3721;44.490;11.220;2023-02-01T07:33:46;5.60;87.70
7362;DHT22;3721;44.490;11.220;2023-02-01T07:36:14;5.60;87.70
7362;DHT22;3721;44.490;11.220;2023-02-01T07:38:41;5.70;87.80
7362;DHT22;3721;44.490;11.220;2023-02-01T07:41:07;5.70;87.80
7362;DHT22;3721;44.490;11.220;2023-02-01T07:43:34;5.80;87.80
7362;DHT22;3721;44.490;11.220;2023-02-01T07:46:00;5.90;87.50
7362;DHT22;3721;44.490;11.220;2023-02-01T07:48:27;6.00;87.50
7362;DHT22;3721;44.490;11.220;2023-02-01T07:55:57;6.20;87.60
7362;DHT22;3721;44.490;11.220;2023-02-01T08:11:00;6.40;87.30
7362;DHT22;3721;44.490;11.220;2023-02-01T08:13:26;6.90;86.50
7362;DHT22;3721;44.490;11.220;2023-02-01T08:15:52;7.00;86.30
7362;DHT22;3721;44.490;11.220;2023-02-01T08:18:22;7.20;86.30
7362;DHT22;3721;44.490;11.220;2023-02-01T08:20:48;7.30;86.70
7362;DHT22;3721;44.490;11.220;2023-02-01T08:23:13;7.40;86.30
7362;DHT22;3721;44.490;11.220;2023-02-01T08:30:31;7.60;86.20
7362;DHT22;3721;44.490;11.220;2023-02-01T08:32:57;7.90;85.50
7362;DHT22;3721;44.490;11.220;2023-02-01T08:37:50;8.00;85.10
7362;DHT22;3721;44.490;11.220;2023-02-01T08:40:16;8.30;85.50
7362;DHT22;3721;44.490;11.220;2023-02-01T08:42:42;8.40;84.40
7362;DHT22;3721;44.490;11.220;2023-02-01T08:45:18;8.50;84.70
7362;DHT22;3721;44.490;11.220;2023-02-01T08:47:47;8.50;84.20
7362;DHT22;3721;44.490;11.220;2023-02-01T08:50:13;8.50;83.60
7362;DHT22;3721;44.490;11.220;2023-02-01T08:52:39;8.50;83.70
7362;DHT22;3721;44.490;11.220;2023-02-01T08:55:06;8.50;84.10
7362;DHT22;3721;44.490;11.220;2023-02-01T08:57:32;8.60;84.50
7362;DHT22;3721;44.490;11.220;2023-02-01T08:59:58;8.60;84.80
7362;DHT22;3721;44.490;11.220;2023-02-01T09:02:24;8.70;84.60
7362;DHT22;3721;44.490;11.220;2023-02-01T09:04:50;8.60;84.90
7362;DHT22;3721;44.490;11.220;2023-02-01T09:07:16;8.60;85.10
7362;DHT22;3721;44.490;11.220;2023-02-01T09:09:44;8.60;85.10
7362;DHT22;3721;44.490;11.220;2023-02-01T09:12:09;8.70;86.00
7362;DHT22;3721;44.490;11.220;2023-02-01T09:14:35;8.70;85.50
7362;DHT22;3721;44.490;11.220;2023-02-01T09:17:01;8.70;85.20
7362;DHT22;3721;44.490;11.220;2023-02-01T09:19:26;8.80;85.30
7362;DHT22;3721;44.490;11.220;2023-02-01T09:21:52;8.90;85.40
7362;DHT22;3721;44.490;11.220;2023-02-01T09:24:18;8.90;85.30
7362;DHT22;3721;44.490;11.220;2023-02-01T09:26:43;9.00;84.70
7362;DHT22;3721;44.490;11.220;2023-02-01T09:29:09;9.00;85.20
7362;DHT22;3721;44.490;11.220;2023-02-01T09:31:38;9.10;85.70
7362;DHT22;3721;44.490;11.220;2023-02-01T09:34:04;9.10;86.40
7362;DHT22;3721;44.490;11.220;2023-02-01T09:36:30;9.10;87.10
7362;DHT22;3721;44.490;11.220;2023-02-01T09:38:56;9.10;87.50
7362;DHT22;3721;44.490;11.220;2023-02-01T09:41:27;9.10;87.80
7362;DHT22;3721;44.490;11.220;2023-02-01T09:44:06;9.20;88.00
7362;DHT22;3721;44.490;11.220;2023-02-01T09:46:33;9.20;88.30
7362;DHT22;3721;44.490;11.220;2023-02-01T09:49:27;9.30;88.20
7362;DHT22;3721;44.490;11.220;2023-02-01T09:51:54;9.30;87.90
7362;DHT22;3721;44.490;11.220;2023-02-01T09:54:35;9.30;88.00
7362;DHT22;3721;44.490;11.220;2023-02-01T09:57:08;9.40;88.00
7362;DHT22;3721;44.490;11.220;2023-02-01T10:02:24;9.50;88.00
7362;DHT22;3721;44.490;11.220;2023-02-01T16:52:28;9.60;87.70
7362;DHT22;3721;44.490;11.220;2023-02-01T16:54:54;10.30;87.90
7362;DHT22;3721;44.490;11.220;2023-02-01T17:17:02;10.20;88.10
7362;DHT22;3721;44.490;11.220;2023-02-01T17:19:28;9.60;90.10
7362;DHT22;3721;44.490;11.220;2023-02-01T17:21:54;9.50;90.10
7362;DHT22;3721;44.490;11.220;2023-02-01T17:29:17;9.40;90.20
7362;DHT22;3721;44.490;11.220;2023-02-01T17:31:47;9.20;90.70
7362;DHT22;3721;44.490;11.220;2023-02-01T17:34:14;9.20;90.50
7362;DHT22;3721;44.490;11.220;2023-02-01T17:36:41;9.10;90.50
7362;DHT22;3721;44.490;11.220;2023-02-01T17:39:07;9.00;90.60
7362;DHT22;3721;44.490;11.220;2023-02-01T17:41:33;9.00;90.70
7362;DHT22;3721;44.490;11.220;2023-02-01T17:43:59;8.90;90.80
7362;DHT22;3721;44.490;11.220;2023-02-01T17:46:24;8.90;90.90
7362;DHT22;3721;44.490;11.220;2023-02-01T17:48:54;8.90;90.90
7362;DHT22;3721;44.490;11.220;2023-02-01T18:04:04;8.80;90.80
7362;DHT22;3721;44.490;11.220;2023-02-01T18:08:59;8.60;91.20
7362;DHT22;3721;44.490;11.220;2023-02-01T18:11:25;8.50;91.40
7362;DHT22;3721;44.490;11.220;2023-02-01T18:13:51;8.40;91.50
7362;DHT22;3721;44.490;11.220;2023-02-01T18:16:19;8.30;91.40
7362;DHT22;3721;44.490;11.220;2023-02-01T18:18:45;8.20;91.50
7362;DHT22;3721;44.490;11.220;2023-02-01T18:21:11;8.20;91.60
7362;DHT22;3721;44.490;11.220;2023-02-01T18:23:37;8.20;91.70
7362;DHT22;3721;44.490;11.220;2023-02-01T18:28:29;8.20;91.70
7362;DHT22;3721;44.490;11.220;2023-02-01T18:30:54;8.10;91.80
7362;DHT22;3721;44.490;11.220;2023-02-01T18:33:21;8.10;91.80
7362;DHT22;3721;44.490;11.220;2023-02-01T20:26:06;8.10;91.80
7362;DHT22;3721;44.490;11.220;2023-02-01T20:28:35;6.60;93.10
7362;DHT22;3721;44.490;11.220;2023-02-01T21:16:23;6.50;93.00
7362;DHT22;3721;44.490;11.220;2023-02-01T21:19:07;7.00;93.80
7362;DHT22;3721;44.490;11.220;2023-02-01T21:21:48;7.10;93.70
7362;DHT22;3721;44.490;11.220;2023-02-01T21:24:21;7.20;93.70
7362;DHT22;3721;44.490;11.220;2023-02-01T21:26:46;7.20;93.60
7362;DHT22;3721;44.490;11.220;2023-02-01T21:29:16;7.30;93.60
7362;DHT22;3721;44.490;11.220;2023-02-01T21:31:42;7.30;93.50
7362;DHT22;3721;44.490;11.220;2023-02-01T21:37:07;7.40;93.50
7362;DHT22;3721;44.490;11.220;2023-02-01T21:39:33;7.50;93.70
7362;DHT22;3721;44.490;11.220;2023-02-01T21:41:59;7.50;93.40
7362;DHT22;3721;44.490;11.220;2023-02-01T21:44:42;7.50;93.30
7362;DHT22;3721;44.490;11.220;2023-02-01T21:47:10;7.50;93.30
7362;DHT22;3721;44.490;11.220;2023-02-01T21:49:36;7.50;93.20
7362;DHT22;3721;44.490;11.220;2023-02-01T22:12:24;7.60;93.20
7362;DHT22;3721;44.490;11.220;2023-02-01T22:14:49;7.70;92.90
7362;DHT22;3721;44.490;11.220;2023-02-01T22:17:15;7.70;92.60
7362;DHT22;3721;44.490;11.220;2023-02-01T22:19:41;7.70;92.60
7362;DHT22;3721;44.490;11.220;2023-02-01T22:22:07;7.70;92.50
7362;DHT22;3721;44.490;11.220;2023-02-01T22:24:33;7.70;92.50
7362;DHT22;3721;44.490;11.220;2023-02-01T22:27:01;7.60;92.40
7362;DHT22;3721;44.490;11.220;2023-02-01T22:29:27;7.60;92.30
7362;DHT22;3721;44.490;11.220;2023-02-01T22:31:53;7.60;92.30
7362;DHT22;3721;44.490;11.220;2023-02-01T22:34:19;7.60;92.20
7362;DHT22;3721;44.490;11.220;2023-02-01T22:36:46;7.50;92.20
7362;DHT22;3721;44.490;11.220;2023-02-01T22:39:13;7.50;92.10
7362;DHT22;3721;44.490;11.220;2023-02-01T22:41:38;7.40;92.10
7362;DHT22;3721;44.490;11.220;2023-02-01T22:44:04;7.40;92.10
7362;DHT22;3721;44.490;11.220;2023-02-01T22:46:30;7.40;92.10
7362;DHT22;3721;44.490;11.220;2023-02-01T22:48:56;7.30;92.00
7362;DHT22;3721;44.490;11.220;2023-02-01T22:51:25;7.30;92.10
7362;DHT22;3721;44.490;11.220;2023-02-01T22:53:52;7.30;92.10
7362;DHT22;3721;44.490;11.220;2023-02-01T22:56:22;7.20;92.00
7362;DHT22;3721;44.490;11.220;2023-02-01T22:58:52;7.20;92.30
7362;DHT22;3721;44.490;11.220;2023-02-01T23:01:18;7.10;91.90
7362;DHT22;3721;44.490;11.220;2023-02-01T23:03:44;7.10;91.90
7362;DHT22;3721;44.490;11.220;2023-02-01T23:06:09;7.10;91.90
7362;DHT22;3721;44.490;11.220;2023-02-01T23:08:35;7.10;91.90
7362;DHT22;3721;44.490;11.220;2023-02-01T23:11:06;7.00;91.80
7362;DHT22;3721;44.490;11.220;2023-02-01T23:13:33;7.00;91.80
7362;DHT22;3721;44.490;11.220;2023-02-01T23:16:12;6.90;91.80
7362;DHT22;3721;44.490;11.220;2023-02-01T23:18:39;6.90;91.80
7362;DHT22;3721;44.490;11.220;2023-02-01T23:21:07;6.90;91.90
7362;DHT22;3721;44.490;11.220;2023-02-01T23:23:33;6.90;91.90
7362;DHT22;3721;44.490;11.220;2023-02-01T23:25:59;6.90;91.90
7362;DHT22;3721;44.490;11.220;2023-02-01T23:28:26;6.90;91.90
7362;DHT22;3721;44.490;11.220;2023-02-01T23:30:52;6.90;91.90
7362;DHT22;3721;44.490;11.220;2023-02-01T23:33:21;6.90;91.90
7362;DHT22;3721;44.490;11.220;2023-02-01T23:35:55;6.90;91.80
7362;DHT22;3721;44.490;11.220;2023-02-01T23:38:20;6.90;91.80
7362;DHT22;3721;44.490;11.220;2023-02-01T23:40:47;6.90;91.80
7362;DHT22;3721;44.490;11.220;2023-02-01T23:43:14;6.80;91.80
7362;DHT22;3721;44.490;11.220;2023-02-01T23:45:58;6.80;91.80
7362;DHT22;3721;44.490;11.220;2023-02-01T23:48:27;6.80;91.70
7362;DHT22;3721;44.490;11.220;2023-02-01T23:50:52;6.80;91.70
7362;DHT22;3721;44.490;11.220;2023-02-01T23:53:18;6.80;91.70
7362;DHT22;3721;44.490;11.220;2023-02-01T23:55:43;6.90;91.70
7362;DHT22;3721;44.490;11.220;2023-02-01T23:58:09;6.90;91.60
